sensor_id;sensor_type;location;lat;lon;timestamp;temperature;humidity
45619;DHT22;31343;47.520;19.144;2022-09-23T00:01:19;8.60;99.90
45619;DHT22;31343;47.520;19.144;2022-09-23T00:03:45;8.70;99.90
45619;DHT22;31343;47.520;19.144;2022-09-23T00:06:20;8.60;99.90
45619;DHT22;31343;47.520;19.144;2022-09-23T00:08:46;8.60;99.90
45619;DHT22;31343;47.520;19.144;2022-09-23T00:11:15;8.60;99.90
45619;DHT22;31343;47.520;19.144;2022-09-23T00:13:41;8.60;99.90
45619;DHT22;31343;47.520;19.144;2022-09-23T00:16:13;8.60;99.90
45619;DHT22;31343;47.520;19.144;2022-09-23T00:18:39;8.60;99.90
45619;DHT22;31343;47.520;19.144;2022-09-23T00:21:06;8.60;99.90
45619;DHT22;31343;47.520;19.144;2022-09-23T00:23:33;8.50;99.90
45619;DHT22;31343;47.520;19.144;2022-09-23T00:25:59;8.40;99.90
45619;DHT22;31343;47.520;19.144;2022-09-23T00:28:25;8.40;99.90
45619;DHT22;31343;47.520;19.144;2022-09-23T00:30:51;8.50;99.90
45619;DHT22;31343;47.520;19.144;2022-09-23T00:33:17;8.30;99.90
45619;DHT22;31343;47.520;19.144;2022-09-23T00:35:42;8.30;99.90
45619;DHT22;31343;47.520;19.144;2022-09-23T00:38:08;8.40;99.90
45619;DHT22;31343;47.520;19.144;2022-09-23T00:40:34;8.40;99.90
45619;DHT22;31343;47.520;19.144;2022-09-23T00:43:00;8.40;99.90
45619;DHT22;31343;47.520;19.144;2022-09-23T00:45:26;8.30;99.90
45619;DHT22;31343;47.520;19.144;2022-09-23T00:47:57;8.30;99.90
45619;DHT22;31343;47.520;19.144;2022-09-23T00:50:29;8.20;99.90
45619;DHT22;31343;47.520;19.144;2022-09-23T00:52:55;8.30;99.90
45619;DHT22;31343;47.520;19.144;2022-09-23T00:55:32;8.20;99.90
45619;DHT22;31343;47.520;19.144;2022-09-23T00:58:00;8.20;99.90
45619;DHT22;31343;47.520;19.144;2022-09-23T01:00:27;8.20;99.90
45619;DHT22;31343;47.520;19.144;2022-09-23T01:02:52;8.20;99.90
45619;DHT22;31343;47.520;19.144;2022-09-23T01:05:18;8.10;99.90
45619;DHT22;31343;47.520;19.144;2022-09-23T01:07:44;8.10;99.90
45619;DHT22;31343;47.520;19.144;2022-09-23T01:10:10;8.10;99.90
45619;DHT22;31343;47.520;19.144;2022-09-23T01:12:59;8.10;99.90
45619;DHT22;31343;47.520;19.144;2022-09-23T01:23:17;8.00;99.90
45619;DHT22;31343;47.520;19.144;2022-09-23T01:30:51;8.00;99.90
45619;DHT22;31343;47.520;19.144;2022-09-23T01:38:42;7.90;99.90
45619;DHT22;31343;47.520;19.144;2022-09-23T01:46:08;7.80;99.90
45619;DHT22;31343;47.520;19.144;2022-09-23T01:48:37;7.80;99.90
45619;DHT22;31343;47.520;19.144;2022-09-23T01:53:32;7.80;99.90
45619;DHT22;31343;47.520;19.144;2022-09-23T01:56:04;7.80;99.90
45619;DHT22;31343;47.520;19.144;2022-09-23T01:58:34;7.80;99.90
45619;DHT22;31343;47.520;19.144;2022-09-23T02:01:05;7.80;99.90
45619;DHT22;31343;47.520;19.144;2022-09-23T02:06:09;7.70;99.90
45619;DHT22;31343;47.520;19.144;2022-09-23T02:08:55;7.70;99.90
45619;DHT22;31343;47.520;19.144;2022-09-23T02:11:22;7.70;99.90
45619;DHT22;31343;47.520;19.144;2022-09-23T02:13:57;7.70;99.90
45619;DHT22;31343;47.520;19.144;2022-09-23T02:16:30;7.60;99.90
45619;DHT22;31343;47.520;19.144;2022-09-23T02:18:58;7.60;99.90
45619;DHT22;31343;47.520;19.144;2022-09-23T02:21:26;7.60;99.90
45619;DHT22;31343;47.520;19.144;2022-09-23T02:23:57;7.60;99.90
45619;DHT22;31343;47.520;19.144;2022-09-23T02:29:13;7.60;99.90
45619;DHT22;31343;47.520;19.144;2022-09-23T02:31:51;7.60;99.90
45619;DHT22;31343;47.520;19.144;2022-09-23T02:42:50;7.50;99.90
45619;DHT22;31343;47.520;19.144;2022-09-23T02:45:17;7.50;99.90
45619;DHT22;31343;47.520;19.144;2022-09-23T02:47:43;7.40;99.90
45619;DHT22;31343;47.520;19.144;2022-09-23T02:50:09;7.40;99.90
45619;DHT22;31343;47.520;19.144;2022-09-23T02:52:35;7.40;99.90
45619;DHT22;31343;47.520;19.144;2022-09-23T02:55:06;7.40;99.90
45619;DHT22;31343;47.520;19.144;2022-09-23T02:57:34;7.50;99.90
45619;DHT22;31343;47.520;19.144;2022-09-23T03:00:00;7.30;99.90
45619;DHT22;31343;47.520;19.144;2022-09-23T03:05:28;7.30;99.90
45619;DHT22;31343;47.520;19.144;2022-09-23T03:08:03;7.30;99.90
45619;DHT22;31343;47.520;19.144;2022-09-23T03:11:13;7.30;99.90
45619;DHT22;31343;47.520;19.144;2022-09-23T03:18:50;7.30;99.90
45619;DHT22;31343;47.520;19.144;2022-09-23T03:21:23;7.30;99.90
45619;DHT22;31343;47.520;19.144;2022-09-23T03:23:49;7.30;99.90
45619;DHT22;31343;47.520;19.144;2022-09-23T03:26:17;7.30;99.90
45619;DHT22;31343;47.520;19.144;2022-09-23T03:28:44;7.30;99.90
45619;DHT22;31343;47.520;19.144;2022-09-23T03:31:10;7.20;99.90
45619;DHT22;31343;47.520;19.144;2022-09-23T03:33:37;7.30;99.90
45619;DHT22;31343;47.520;19.144;2022-09-23T03:36:05;7.30;99.90
45619;DHT22;31343;47.520;19.144;2022-09-23T03:38:53;7.30;99.90
45619;DHT22;31343;47.520;19.144;2022-09-23T03:41:28;7.30;99.90
45619;DHT22;31343;47.520;19.144;2022-09-23T03:43:56;7.30;99.90
45619;DHT22;31343;47.520;19.144;2022-09-23T03:46:26;7.30;99.90
45619;DHT22;31343;47.520;19.144;2022-09-23T03:48:55;7.30;99.90
45619;DHT22;31343;47.520;19.144;2022-09-23T03:51:23;7.20;99.90
45619;DHT22;31343;47.520;19.144;2022-09-23T03:53:49;7.30;99.90
45619;DHT22;31343;47.520;19.144;2022-09-23T03:56:15;7.30;99.90
45619;DHT22;31343;47.520;19.144;2022-09-23T03:58:41;7.30;99.90
45619;DHT22;31343;47.520;19.144;2022-09-23T04:01:06;7.30;99.90
45619;DHT22;31343;47.520;19.144;2022-09-23T04:03:32;7.30;99.90
45619;DHT22;31343;47.520;19.144;2022-09-23T04:05:57;7.30;99.90
45619;DHT22;31343;47.520;19.144;2022-09-23T04:08:23;7.40;99.90
45619;DHT22;31343;47.520;19.144;2022-09-23T04:10:49;7.40;99.90
45619;DHT22;31343;47.520;19.144;2022-09-23T04:13:14;7.30;99.90
45619;DHT22;31343;47.520;19.144;2022-09-23T04:15:40;7.30;99.90
45619;DHT22;31343;47.520;19.144;2022-09-23T04:18:06;7.30;99.90
45619;DHT22;31343;47.520;19.144;2022-09-23T04:20:31;7.20;99.90
45619;DHT22;31343;47.520;19.144;2022-09-23T04:22:57;7.30;99.90
45619;DHT22;31343;47.520;19.144;2022-09-23T04:25:25;7.30;99.90
45619;DHT22;31343;47.520;19.144;2022-09-23T04:27:51;7.30;99.90
45619;DHT22;31343;47.520;19.144;2022-09-23T04:30:16;7.40;99.90
45619;DHT22;31343;47.520;19.144;2022-09-23T04:32:43;7.30;99.90
45619;DHT22;31343;47.520;19.144;2022-09-23T04:35:08;7.40;99.90
45619;DHT22;31343;47.520;19.144;2022-09-23T04:37:35;7.40;99.90
45619;DHT22;31343;47.520;19.144;2022-09-23T04:40:00;7.30;99.90
45619;DHT22;31343;47.520;19.144;2022-09-23T04:42:27;7.30;99.90
45619;DHT22;31343;47.520;19.144;2022-09-23T04:44:53;7.30;99.90
45619;DHT22;31343;47.520;19.144;2022-09-23T04:47:18;7.40;99.90
45619;DHT22;31343;47.520;19.144;2022-09-23T04:49:44;7.30;99.90
45619;DHT22;31343;47.520;19.144;2022-09-23T04:52:12;7.30;99.90
45619;DHT22;31343;47.520;19.144;2022-09-23T04:54:39;7.40;99.90
45619;DHT22;31343;47.520;19.144;2022-09-23T04:57:05;7.30;99.90
45619;DHT22;31343;47.520;19.144;2022-09-23T04:59:33;7.30;99.90
45619;DHT22;31343;47.520;19.144;2022-09-23T05:01:58;7.30;99.90
45619;DHT22;31343;47.520;19.144;2022-09-23T05:04:24;7.50;99.90
45619;DHT22;31343;47.520;19.144;2022-09-23T05:06:49;7.60;99.90
45619;DHT22;31343;47.520;19.144;2022-09-23T05:09:15;7.70;99.90
45619;DHT22;31343;47.520;19.144;2022-09-23T05:11:41;7.80;99.90
45619;DHT22;31343;47.520;19.144;2022-09-23T05:14:08;8.00;99.90
45619;DHT22;31343;47.520;19.144;2022-09-23T05:16:34;8.30;99.90
45619;DHT22;31343;47.520;19.144;2022-09-23T05:19:00;8.60;99.90
45619;DHT22;31343;47.520;19.144;2022-09-23T05:21:25;9.10;99.90
45619;DHT22;31343;47.520;19.144;2022-09-23T05:23:54;9.60;99.90
45619;DHT22;31343;47.520;19.144;2022-09-23T05:26:21;10.00;99.90
45619;DHT22;31343;47.520;19.144;2022-09-23T05:28:47;10.20;99.90
45619;DHT22;31343;47.520;19.144;2022-09-23T05:31:13;10.80;99.90
45619;DHT22;31343;47.520;19.144;2022-09-23T05:33:40;11.50;99.90
45619;DHT22;31343;47.520;19.144;2022-09-23T05:36:06;12.20;99.90
45619;DHT22;31343;47.520;19.144;2022-09-23T05:38:32;12.60;99.90
45619;DHT22;31343;47.520;19.144;2022-09-23T05:40:58;13.30;99.90
45619;DHT22;31343;47.520;19.144;2022-09-23T05:43:24;13.90;99.90
45619;DHT22;31343;47.520;19.144;2022-09-23T05:45:50;14.30;99.90
45619;DHT22;31343;47.520;19.144;2022-09-23T05:48:16;14.90;99.90
45619;DHT22;31343;47.520;19.144;2022-09-23T05:50:51;15.00;99.50
45619;DHT22;31343;47.520;19.144;2022-09-23T05:53:17;15.50;98.80
45619;DHT22;31343;47.520;19.144;2022-09-23T05:55:42;16.60;97.90
45619;DHT22;31343;47.520;19.144;2022-09-23T05:58:10;17.20;96.30
45619;DHT22;31343;47.520;19.144;2022-09-23T06:00:38;17.80;95.60
45619;DHT22;31343;47.520;19.144;2022-09-23T06:03:04;18.20;95.00
45619;DHT22;31343;47.520;19.144;2022-09-23T06:05:30;18.20;93.80
45619;DHT22;31343;47.520;19.144;2022-09-23T06:07:55;17.40;94.90
45619;DHT22;31343;47.520;19.144;2022-09-23T06:10:21;17.50;95.00
45619;DHT22;31343;47.520;19.144;2022-09-23T06:12:47;18.50;94.30
45619;DHT22;31343;47.520;19.144;2022-09-23T06:15:13;19.20;92.80
45619;DHT22;31343;47.520;19.144;2022-09-23T06:17:38;19.10;92.20
45619;DHT22;31343;47.520;19.144;2022-09-23T06:20:04;19.70;91.70
45619;DHT22;31343;47.520;19.144;2022-09-23T06:22:30;19.90;91.10
45619;DHT22;31343;47.520;19.144;2022-09-23T06:24:55;20.90;90.80
45619;DHT22;31343;47.520;19.144;2022-09-23T06:27:21;21.20;89.50
45619;DHT22;31343;47.520;19.144;2022-09-23T06:29:46;21.00;88.60
45619;DHT22;31343;47.520;19.144;2022-09-23T06:32:12;21.30;88.00
45619;DHT22;31343;47.520;19.144;2022-09-23T06:34:37;21.10;87.80
45619;DHT22;31343;47.520;19.144;2022-09-23T06:37:05;21.50;86.90
45619;DHT22;31343;47.520;19.144;2022-09-23T06:39:31;22.30;85.80
45619;DHT22;31343;47.520;19.144;2022-09-23T06:41:56;21.20;86.10
45619;DHT22;31343;47.520;19.144;2022-09-23T06:44:22;20.80;87.10
45619;DHT22;31343;47.520;19.144;2022-09-23T06:46:49;21.90;86.30
45619;DHT22;31343;47.520;19.144;2022-09-23T06:49:14;22.80;84.00
45619;DHT22;31343;47.520;19.144;2022-09-23T06:51:40;22.60;83.00
45619;DHT22;31343;47.520;19.144;2022-09-23T06:54:06;21.80;84.20
45619;DHT22;31343;47.520;19.144;2022-09-23T06:56:31;21.50;85.50
45619;DHT22;31343;47.520;19.144;2022-09-23T06:58:57;21.60;84.50
45619;DHT22;31343;47.520;19.144;2022-09-23T07:01:23;22.60;83.20
45619;DHT22;31343;47.520;19.144;2022-09-23T07:03:49;23.00;82.50
45619;DHT22;31343;47.520;19.144;2022-09-23T07:06:14;23.00;81.50
45619;DHT22;31343;47.520;19.144;2022-09-23T07:08:43;23.70;80.40
45619;DHT22;31343;47.520;19.144;2022-09-23T07:11:11;24.30;79.90
45619;DHT22;31343;47.520;19.144;2022-09-23T07:13:37;24.10;78.40
45619;DHT22;31343;47.520;19.144;2022-09-23T07:16:04;23.00;79.60
45619;DHT22;31343;47.520;19.144;2022-09-23T07:18:30;23.50;79.40
45619;DHT22;31343;47.520;19.144;2022-09-23T07:21:19;23.40;80.40
45619;DHT22;31343;47.520;19.144;2022-09-23T07:23:45;23.20;81.00
45619;DHT22;31343;47.520;19.144;2022-09-23T07:26:11;22.90;80.60
45619;DHT22;31343;47.520;19.144;2022-09-23T07:28:39;22.40;82.10
45619;DHT22;31343;47.520;19.144;2022-09-23T07:31:06;21.90;82.60
45619;DHT22;31343;47.520;19.144;2022-09-23T07:33:32;21.60;83.30
45619;DHT22;31343;47.520;19.144;2022-09-23T07:36:02;21.60;84.30
45619;DHT22;31343;47.520;19.144;2022-09-23T07:38:28;21.10;85.10
45619;DHT22;31343;47.520;19.144;2022-09-23T07:40:59;21.10;83.90
45619;DHT22;31343;47.520;19.144;2022-09-23T07:43:27;21.10;84.90
45619;DHT22;31343;47.520;19.144;2022-09-23T07:45:57;20.50;86.20
45619;DHT22;31343;47.520;19.144;2022-09-23T07:48:22;20.30;86.30
45619;DHT22;31343;47.520;19.144;2022-09-23T07:50:48;20.80;86.20
45619;DHT22;31343;47.520;19.144;2022-09-23T07:53:14;21.40;84.60
45619;DHT22;31343;47.520;19.144;2022-09-23T07:55:40;21.50;84.70
45619;DHT22;31343;47.520;19.144;2022-09-23T07:58:05;22.10;83.00
45619;DHT22;31343;47.520;19.144;2022-09-23T08:00:31;22.50;81.60
45619;DHT22;31343;47.520;19.144;2022-09-23T08:02:57;22.60;81.30
45619;DHT22;31343;47.520;19.144;2022-09-23T08:05:24;22.90;79.00
45619;DHT22;31343;47.520;19.144;2022-09-23T08:07:50;22.30;81.10
45619;DHT22;31343;47.520;19.144;2022-09-23T08:10:16;23.60;79.60
45619;DHT22;31343;47.520;19.144;2022-09-23T08:12:45;23.70;77.50
45619;DHT22;31343;47.520;19.144;2022-09-23T08:15:11;23.20;77.90
45619;DHT22;31343;47.520;19.144;2022-09-23T08:17:37;22.60;79.00
45619;DHT22;31343;47.520;19.144;2022-09-23T08:20:02;22.20;81.70
45619;DHT22;31343;47.520;19.144;2022-09-23T08:22:28;20.80;83.30
45619;DHT22;31343;47.520;19.144;2022-09-23T08:24:54;20.00;85.30
45619;DHT22;31343;47.520;19.144;2022-09-23T08:27:20;18.60;89.60
45619;DHT22;31343;47.520;19.144;2022-09-23T08:29:46;18.20;90.50
45619;DHT22;31343;47.520;19.144;2022-09-23T08:32:12;17.90;91.40
45619;DHT22;31343;47.520;19.144;2022-09-23T08:34:37;17.40;91.40
45619;DHT22;31343;47.520;19.144;2022-09-23T08:37:03;17.30;92.10
45619;DHT22;31343;47.520;19.144;2022-09-23T08:39:33;17.50;92.70
45619;DHT22;31343;47.520;19.144;2022-09-23T08:42:04;17.30;92.50
45619;DHT22;31343;47.520;19.144;2022-09-23T08:49:47;17.30;92.90
45619;DHT22;31343;47.520;19.144;2022-09-23T08:53:01;17.30;92.80
45619;DHT22;31343;47.520;19.144;2022-09-23T08:55:02;16.50;93.80
45619;DHT22;31343;47.520;19.144;2022-09-23T08:57:51;16.90;93.90
45619;DHT22;31343;47.520;19.144;2022-09-23T09:00:20;16.60;93.50
45619;DHT22;31343;47.520;19.144;2022-09-23T09:02:47;16.80;94.60
45619;DHT22;31343;47.520;19.144;2022-09-23T09:05:13;17.20;94.10
45619;DHT22;31343;47.520;19.144;2022-09-23T09:07:42;17.10;93.30
45619;DHT22;31343;47.520;19.144;2022-09-23T09:10:16;17.10;93.40
45619;DHT22;31343;47.520;19.144;2022-09-23T09:12:50;16.60;93.30
45619;DHT22;31343;47.520;19.144;2022-09-23T09:15:19;16.40;94.00
45619;DHT22;31343;47.520;19.144;2022-09-23T09:23:19;16.40;94.50
45619;DHT22;31343;47.520;19.144;2022-09-23T09:25:53;16.30;94.30
45619;DHT22;31343;47.520;19.144;2022-09-23T09:28:31;16.40;94.40
45619;DHT22;31343;47.520;19.144;2022-09-23T09:31:00;16.50;94.40
45619;DHT22;31343;47.520;19.144;2022-09-23T09:33:29;17.10;94.50
45619;DHT22;31343;47.520;19.144;2022-09-23T09:36:05;16.70;94.20
45619;DHT22;31343;47.520;19.144;2022-09-23T09:38:34;16.90;95.00
45619;DHT22;31343;47.520;19.144;2022-09-23T09:41:00;17.20;94.00
45619;DHT22;31343;47.520;19.144;2022-09-23T09:43:33;17.30;93.50
45619;DHT22;31343;47.520;19.144;2022-09-23T09:48:35;17.30;93.80
45619;DHT22;31343;47.520;19.144;2022-09-23T09:51:16;17.50;93.70
45619;DHT22;31343;47.520;19.144;2022-09-23T09:53:43;17.30;92.90
45619;DHT22;31343;47.520;19.144;2022-09-23T09:56:09;17.10;93.60
45619;DHT22;31343;47.520;19.144;2022-09-23T09:59:09;17.00;94.20
45619;DHT22;31343;47.520;19.144;2022-09-23T10:01:31;17.10;94.30
45619;DHT22;31343;47.520;19.144;2022-09-23T10:03:57;17.40;94.00
45619;DHT22;31343;47.520;19.144;2022-09-23T10:06:25;17.60;93.30
45619;DHT22;31343;47.520;19.144;2022-09-23T10:11:26;17.20;94.50
45619;DHT22;31343;47.520;19.144;2022-09-23T10:16:24;17.10;94.80
45619;DHT22;31343;47.520;19.144;2022-09-23T10:18:50;17.00;94.10
45619;DHT22;31343;47.520;19.144;2022-09-23T10:21:20;17.00;94.50
45619;DHT22;31343;47.520;19.144;2022-09-23T10:23:47;17.00;94.40
45619;DHT22;31343;47.520;19.144;2022-09-23T10:26:14;16.90;94.40
45619;DHT22;31343;47.520;19.144;2022-09-23T10:28:49;16.70;93.50
45619;DHT22;31343;47.520;19.144;2022-09-23T10:31:22;16.60;93.80
45619;DHT22;31343;47.520;19.144;2022-09-23T10:33:50;16.80;94.80
45619;DHT22;31343;47.520;19.144;2022-09-23T10:36:17;16.90;94.50
45619;DHT22;31343;47.520;19.144;2022-09-23T10:38:43;17.10;94.30
45619;DHT22;31343;47.520;19.144;2022-09-23T10:50:15;17.90;92.90
45619;DHT22;31343;47.520;19.144;2022-09-23T10:55:14;17.90;92.10
45619;DHT22;31343;47.520;19.144;2022-09-23T11:05:32;18.40;92.20
45619;DHT22;31343;47.520;19.144;2022-09-23T11:13:10;17.50;92.60
45619;DHT22;31343;47.520;19.144;2022-09-23T11:33:18;20.40;88.70
45619;DHT22;31343;47.520;19.144;2022-09-23T11:35:54;20.20;88.60
45619;DHT22;31343;47.520;19.144;2022-09-23T11:38:34;20.10;90.00
45619;DHT22;31343;47.520;19.144;2022-09-23T11:41:24;19.90;88.40
45619;DHT22;31343;47.520;19.144;2022-09-23T11:43:52;19.40;88.80
45619;DHT22;31343;47.520;19.144;2022-09-23T11:46:29;19.30;90.30
45619;DHT22;31343;47.520;19.144;2022-09-23T11:49:16;19.30;89.50
45619;DHT22;31343;47.520;19.144;2022-09-23T11:54:33;19.00;87.10
45619;DHT22;31343;47.520;19.144;2022-09-23T11:57:01;18.80;87.40
45619;DHT22;31343;47.520;19.144;2022-09-23T11:59:34;18.80;88.80
45619;DHT22;31343;47.520;19.144;2022-09-23T12:04:47;18.80;90.00
45619;DHT22;31343;47.520;19.144;2022-09-23T12:07:16;18.90;90.10
45619;DHT22;31343;47.520;19.144;2022-09-23T12:09:55;18.90;89.70
45619;DHT22;31343;47.520;19.144;2022-09-23T12:15:16;18.80;89.90
45619;DHT22;31343;47.520;19.144;2022-09-23T12:20:36;18.40;90.10
45619;DHT22;31343;47.520;19.144;2022-09-23T12:26:08;18.00;88.20
45619;DHT22;31343;47.520;19.144;2022-09-23T12:28:40;17.80;89.40
45619;DHT22;31343;47.520;19.144;2022-09-23T12:31:19;17.80;90.00
45619;DHT22;31343;47.520;19.144;2022-09-23T12:33:49;17.60;90.30
45619;DHT22;31343;47.520;19.144;2022-09-23T12:36:16;17.50;89.80
45619;DHT22;31343;47.520;19.144;2022-09-23T12:38:51;17.50;90.00
45619;DHT22;31343;47.520;19.144;2022-09-23T12:43:50;17.70;90.30
45619;DHT22;31343;47.520;19.144;2022-09-23T12:46:23;17.80;88.60
45619;DHT22;31343;47.520;19.144;2022-09-23T12:51:24;17.70;90.00
45619;DHT22;31343;47.520;19.144;2022-09-23T12:53:50;17.60;89.10
45619;DHT22;31343;47.520;19.144;2022-09-23T12:56:18;17.80;89.30
45619;DHT22;31343;47.520;19.144;2022-09-23T13:03:44;17.90;86.90
45619;DHT22;31343;47.520;19.144;2022-09-23T13:06:39;18.20;87.80
45619;DHT22;31343;47.520;19.144;2022-09-23T13:09:16;18.80;87.90
45619;DHT22;31343;47.520;19.144;2022-09-23T13:11:43;19.10;86.20
45619;DHT22;31343;47.520;19.144;2022-09-23T13:14:11;19.30;84.40
45619;DHT22;31343;47.520;19.144;2022-09-23T13:16:41;19.30;84.00
45619;DHT22;31343;47.520;19.144;2022-09-23T13:22:10;19.00;84.80
45619;DHT22;31343;47.520;19.144;2022-09-23T13:29:28;19.30;82.40
45619;DHT22;31343;47.520;19.144;2022-09-23T13:31:57;19.30;81.70
45619;DHT22;31343;47.520;19.144;2022-09-23T13:34:23;18.90;82.20
45619;DHT22;31343;47.520;19.144;2022-09-23T13:36:50;18.80;82.10
45619;DHT22;31343;47.520;19.144;2022-09-23T13:39:25;19.00;83.10
45619;DHT22;31343;47.520;19.144;2022-09-23T13:41:57;18.80;80.30
45619;DHT22;31343;47.520;19.144;2022-09-23T13:44:25;18.70;82.90
45619;DHT22;31343;47.520;19.144;2022-09-23T13:46:52;18.80;85.10
45619;DHT22;31343;47.520;19.144;2022-09-23T13:51:44;18.80;85.90
45619;DHT22;31343;47.520;19.144;2022-09-23T13:54:23;18.70;86.30
45619;DHT22;31343;47.520;19.144;2022-09-23T13:56:51;18.70;86.80
45619;DHT22;31343;47.520;19.144;2022-09-23T13:59:23;18.70;87.00
45619;DHT22;31343;47.520;19.144;2022-09-23T14:02:00;18.80;87.00
45619;DHT22;31343;47.520;19.144;2022-09-23T14:04:26;18.80;87.20
45619;DHT22;31343;47.520;19.144;2022-09-23T14:06:52;18.70;86.10
45619;DHT22;31343;47.520;19.144;2022-09-23T14:09:18;18.70;85.30
45619;DHT22;31343;47.520;19.144;2022-09-23T14:11:46;18.60;85.10
45619;DHT22;31343;47.520;19.144;2022-09-23T14:14:12;18.60;85.10
45619;DHT22;31343;47.520;19.144;2022-09-23T14:16:39;18.70;85.60
45619;DHT22;31343;47.520;19.144;2022-09-23T14:19:05;18.80;86.20
45619;DHT22;31343;47.520;19.144;2022-09-23T14:21:35;18.90;86.10
45619;DHT22;31343;47.520;19.144;2022-09-23T14:24:07;19.00;84.00
45619;DHT22;31343;47.520;19.144;2022-09-23T14:26:36;18.90;83.80
45619;DHT22;31343;47.520;19.144;2022-09-23T14:29:02;18.90;82.80
45619;DHT22;31343;47.520;19.144;2022-09-23T14:31:28;18.80;83.40
45619;DHT22;31343;47.520;19.144;2022-09-23T14:33:54;18.70;84.00
45619;DHT22;31343;47.520;19.144;2022-09-23T14:36:20;18.70;83.10
45619;DHT22;31343;47.520;19.144;2022-09-23T14:39:06;18.60;83.60
45619;DHT22;31343;47.520;19.144;2022-09-23T14:41:36;18.50;84.10
45619;DHT22;31343;47.520;19.144;2022-09-23T14:44:03;18.50;87.20
45619;DHT22;31343;47.520;19.144;2022-09-23T14:46:29;18.50;85.80
45619;DHT22;31343;47.520;19.144;2022-09-23T14:51:51;18.50;85.50
45619;DHT22;31343;47.520;19.144;2022-09-23T14:56:48;18.60;84.90
45619;DHT22;31343;47.520;19.144;2022-09-23T14:59:25;18.60;85.10
45619;DHT22;31343;47.520;19.144;2022-09-23T15:01:51;18.70;83.90
45619;DHT22;31343;47.520;19.144;2022-09-23T15:06:47;18.70;86.90
45619;DHT22;31343;47.520;19.144;2022-09-23T15:09:16;18.80;85.30
45619;DHT22;31343;47.520;19.144;2022-09-23T15:11:44;18.80;85.60
45619;DHT22;31343;47.520;19.144;2022-09-23T15:14:10;18.70;85.00
45619;DHT22;31343;47.520;19.144;2022-09-23T15:16:35;18.70;84.80
45619;DHT22;31343;47.520;19.144;2022-09-23T15:19:03;18.50;83.90
45619;DHT22;31343;47.520;19.144;2022-09-23T15:21:32;18.40;85.90
45619;DHT22;31343;47.520;19.144;2022-09-23T15:23:59;18.40;86.80
45619;DHT22;31343;47.520;19.144;2022-09-23T15:26:39;18.30;85.60
45619;DHT22;31343;47.520;19.144;2022-09-23T15:29:08;18.30;85.80
45619;DHT22;31343;47.520;19.144;2022-09-23T15:31:43;18.10;86.20
45619;DHT22;31343;47.520;19.144;2022-09-23T15:34:09;18.00;88.10
45619;DHT22;31343;47.520;19.144;2022-09-23T15:36:34;17.90;87.60
45619;DHT22;31343;47.520;19.144;2022-09-23T15:39:04;17.90;89.50
45619;DHT22;31343;47.520;19.144;2022-09-23T15:41:30;17.80;89.80
45619;DHT22;31343;47.520;19.144;2022-09-23T15:44:00;17.80;90.60
45619;DHT22;31343;47.520;19.144;2022-09-23T15:46:28;17.70;90.80
45619;DHT22;31343;47.520;19.144;2022-09-23T15:48:58;17.70;91.30
45619;DHT22;31343;47.520;19.144;2022-09-23T15:51:25;17.60;91.40
45619;DHT22;31343;47.520;19.144;2022-09-23T15:53:51;17.60;90.40
45619;DHT22;31343;47.520;19.144;2022-09-23T15:56:19;17.40;88.60
45619;DHT22;31343;47.520;19.144;2022-09-23T15:58:45;17.40;88.30
45619;DHT22;31343;47.520;19.144;2022-09-23T16:01:27;17.50;87.50
45619;DHT22;31343;47.520;19.144;2022-09-23T16:03:53;17.40;87.60
45619;DHT22;31343;47.520;19.144;2022-09-23T16:06:19;17.30;89.60
45619;DHT22;31343;47.520;19.144;2022-09-23T16:08:45;17.30;90.90
45619;DHT22;31343;47.520;19.144;2022-09-23T16:11:18;17.20;90.20
45619;DHT22;31343;47.520;19.144;2022-09-23T16:13:44;17.30;90.50
45619;DHT22;31343;47.520;19.144;2022-09-23T16:16:10;17.20;91.90
45619;DHT22;31343;47.520;19.144;2022-09-23T16:18:35;17.20;91.20
45619;DHT22;31343;47.520;19.144;2022-09-23T16:21:03;17.20;91.70
45619;DHT22;31343;47.520;19.144;2022-09-23T16:23:32;17.10;91.60
45619;DHT22;31343;47.520;19.144;2022-09-23T16:26:07;17.00;91.40
45619;DHT22;31343;47.520;19.144;2022-09-23T16:28:35;17.00;91.80
45619;DHT22;31343;47.520;19.144;2022-09-23T16:31:02;16.80;91.70
45619;DHT22;31343;47.520;19.144;2022-09-23T16:33:28;16.70;92.10
45619;DHT22;31343;47.520;19.144;2022-09-23T16:35:53;16.80;92.20
45619;DHT22;31343;47.520;19.144;2022-09-23T16:38:19;16.70;92.60
45619;DHT22;31343;47.520;19.144;2022-09-23T16:40:45;16.70;93.10
45619;DHT22;31343;47.520;19.144;2022-09-23T16:43:11;16.60;92.70
45619;DHT22;31343;47.520;19.144;2022-09-23T16:45:36;16.70;92.70
45619;DHT22;31343;47.520;19.144;2022-09-23T16:48:03;16.60;92.90
45619;DHT22;31343;47.520;19.144;2022-09-23T16:50:29;16.50;93.20
45619;DHT22;31343;47.520;19.144;2022-09-23T16:52:56;16.40;93.20
45619;DHT22;31343;47.520;19.144;2022-09-23T16:55:22;16.40;93.50
45619;DHT22;31343;47.520;19.144;2022-09-23T16:57:49;16.40;93.50
45619;DHT22;31343;47.520;19.144;2022-09-23T17:00:15;16.30;93.70
45619;DHT22;31343;47.520;19.144;2022-09-23T17:02:59;16.20;94.00
45619;DHT22;31343;47.520;19.144;2022-09-23T17:05:44;16.20;94.20
45619;DHT22;31343;47.520;19.144;2022-09-23T17:08:10;16.10;94.20
45619;DHT22;31343;47.520;19.144;2022-09-23T17:10:38;16.10;94.80
45619;DHT22;31343;47.520;19.144;2022-09-23T17:13:04;16.10;94.70
45619;DHT22;31343;47.520;19.144;2022-09-23T17:15:30;16.10;95.10
45619;DHT22;31343;47.520;19.144;2022-09-23T17:17:55;16.20;95.50
45619;DHT22;31343;47.520;19.144;2022-09-23T17:20:21;16.20;95.80
45619;DHT22;31343;47.520;19.144;2022-09-23T17:22:46;16.10;96.30
45619;DHT22;31343;47.520;19.144;2022-09-23T17:25:12;16.10;96.10
45619;DHT22;31343;47.520;19.144;2022-09-23T17:27:38;16.10;96.50
45619;DHT22;31343;47.520;19.144;2022-09-23T17:30:03;16.00;96.40
45619;DHT22;31343;47.520;19.144;2022-09-23T17:32:29;15.90;96.30
45619;DHT22;31343;47.520;19.144;2022-09-23T17:34:55;15.90;96.30
45619;DHT22;31343;47.520;19.144;2022-09-23T17:37:20;15.80;96.40
45619;DHT22;31343;47.520;19.144;2022-09-23T17:39:46;15.80;96.50
45619;DHT22;31343;47.520;19.144;2022-09-23T17:42:11;15.70;96.00
45619;DHT22;31343;47.520;19.144;2022-09-23T17:44:38;15.60;96.40
45619;DHT22;31343;47.520;19.144;2022-09-23T17:47:04;15.60;96.80
45619;DHT22;31343;47.520;19.144;2022-09-23T17:49:30;15.50;96.80
45619;DHT22;31343;47.520;19.144;2022-09-23T17:52:00;15.40;97.40
45619;DHT22;31343;47.520;19.144;2022-09-23T17:54:29;15.30;97.50
45619;DHT22;31343;47.520;19.144;2022-09-23T17:56:56;15.20;98.00
45619;DHT22;31343;47.520;19.144;2022-09-23T17:59:22;15.10;98.70